Time;durP1;ratioP1;P1;durP2;ratioP2;P2;SDS_P1;SDS_P2;PMS_P1;PMS_P2;Temp;Humidity;BMP_temperature;BMP_pressure;BME280_temperature;BME280_humidity;BME280_pressure;Samples;Min_cycle;Max_cycle;Signal;HPM_P1;HPM_P2
2023/04/18 00:00:48;;;;;;;;;;;20.20;35.10;;;;;;8395156;28;20310;-44
2023/04/18 00:04:49;;;;;;;;;;;20.20;35.00;;;;;;8394653;28;19927;-45
2023/04/18 00:08:49;;;;;;;;;;;20.20;35.00;;;;;;8394324;28;20007;-44
2023/04/18 00:12:50;;;;;;;;;;;20.20;35.10;;;;;;8394717;28;19939;-45
2023/04/18 00:16:52;;;;;;;;;;;20.20;35.10;;;;;;8394413;28;19925;-46
2023/04/18 00:20:53;;;;;;;;;;;20.20;35.10;;;;;;8394723;28;19920;-44
2023/04/18 00:24:53;;;;;;;;;;;20.10;35.10;;;;;;8400582;28;19931;-45
2023/04/18 00:28:54;;;;;;;;;;;20.10;35.10;;;;;;8400485;28;20323;-45
2023/04/18 00:32:54;;;;;;;;;;;20.10;35.10;;;;;;8399904;28;19912;-43
2023/04/18 00:36:55;;;;;;;;;;;20.10;35.20;;;;;;8400518;28;20010;-44
2023/04/18 00:40:55;;;;;;;;;;;20.10;35.20;;;;;;8400408;28;19923;-43
2023/04/18 00:44:55;;;;;;;;;;;20.00;35.20;;;;;;8399689;28;19916;-44
2023/04/18 00:48:56;;;;;;;;;;;20.00;35.20;;;;;;8400340;28;19917;-44
2023/04/18 00:52:57;;;;;;;;;;;20.00;35.20;;;;;;8400102;28;19931;-43
2023/04/18 00:56:57;;;;;;;;;;;20.00;35.10;;;;;;8399352;28;19935;-45
2023/04/18 01:00:58;;;;;;;;;;;20.00;35.20;;;;;;8399902;28;19923;-45
2023/04/18 01:04:58;;;;;;;;;;;20.00;35.20;;;;;;8398650;28;19921;-44
2023/04/18 01:08:58;;;;;;;;;;;20.00;35.20;;;;;;8399003;28;19919;-45
2023/04/18 01:13:15;;;;;;;;;;;20.00;35.20;;;;;;8399181;28;20282;-45
2023/04/18 01:17:18;;;;;;;;;;;19.90;35.20;;;;;;8398872;28;20023;-46
2023/04/18 01:21:19;;;;;;;;;;;19.90;35.20;;;;;;8398878;28;19912;-45
2023/04/18 01:25:19;;;;;;;;;;;20.00;35.20;;;;;;8399310;28;20323;-44
2023/04/18 01:29:20;;;;;;;;;;;19.90;35.20;;;;;;8398872;28;19924;-44
2023/04/18 01:33:20;;;;;;;;;;;19.90;35.20;;;;;;8397597;28;19924;-45
2023/04/18 01:37:20;;;;;;;;;;;19.90;35.20;;;;;;8398545;28;19935;-45
2023/04/18 01:41:21;;;;;;;;;;;19.90;35.30;;;;;;8398343;28;19974;-44
2023/04/18 01:45:22;;;;;;;;;;;19.90;35.30;;;;;;8397757;28;20402;-44
2023/04/18 01:49:22;;;;;;;;;;;19.90;35.30;;;;;;8398037;28;20173;-45
2023/04/18 01:53:24;;;;;;;;;;;19.80;35.20;;;;;;8397903;28;20431;-45
2023/04/18 01:57:24;;;;;;;;;;;19.90;35.30;;;;;;8397235;28;19946;-44
2023/04/18 02:01:25;;;;;;;;;;;19.80;35.20;;;;;;8397801;28;19959;-45
2023/04/18 02:05:28;;;;;;;;;;;19.80;35.20;;;;;;8397398;28;19925;-45
2023/04/18 02:09:29;;;;;;;;;;;19.80;35.30;;;;;;8396917;28;19917;-45
2023/04/18 02:13:29;;;;;;;;;;;19.80;35.30;;;;;;8397241;28;20273;-44
2023/04/18 02:17:30;;;;;;;;;;;19.80;35.30;;;;;;8396958;28;19932;-45
2023/04/18 02:21:30;;;;;;;;;;;19.80;35.30;;;;;;8396779;28;19920;-44
2023/04/18 02:25:31;;;;;;;;;;;19.80;35.30;;;;;;8396700;28;19990;-44
2023/04/18 02:29:32;;;;;;;;;;;19.80;35.30;;;;;;8396882;28;19999;-44
2023/04/18 02:33:32;;;;;;;;;;;19.70;35.30;;;;;;8396185;28;19944;-45
2023/04/18 02:37:32;;;;;;;;;;;19.80;35.30;;;;;;8396661;28;19944;-45
2023/04/18 02:41:36;;;;;;;;;;;19.70;35.30;;;;;;8396629;28;20443;-45
2023/04/18 02:45:36;;;;;;;;;;;19.70;35.30;;;;;;8394963;28;19923;-45
2023/04/18 02:49:37;;;;;;;;;;;19.70;35.30;;;;;;8396585;28;20392;-45
2023/04/18 02:53:37;;;;;;;;;;;19.70;35.40;;;;;;8396136;28;19999;-44
2023/04/18 02:57:38;;;;;;;;;;;19.70;35.30;;;;;;8395409;28;20241;-44
2023/04/18 03:01:38;;;;;;;;;;;19.70;35.40;;;;;;8396221;28;20490;-45
2023/04/18 03:05:38;;;;;;;;;;;19.70;35.40;;;;;;8395938;28;19920;-45
2023/04/18 03:09:39;;;;;;;;;;;19.70;35.40;;;;;;8395285;28;19916;-46
2023/04/18 03:13:39;;;;;;;;;;;19.70;35.40;;;;;;8395892;28;20373;-44
2023/04/18 03:17:40;;;;;;;;;;;19.70;35.40;;;;;;8395668;28;20401;-44
2023/04/18 03:21:40;;;;;;;;;;;19.60;35.30;;;;;;8395271;28;19920;-45
2023/04/18 03:25:41;;;;;;;;;;;19.60;35.30;;;;;;8395611;28;20007;-45
2023/04/18 03:29:41;;;;;;;;;;;19.60;35.30;;;;;;8395088;28;19920;-43
2023/04/18 03:33:43;;;;;;;;;;;19.70;35.40;;;;;;8395371;28;19912;-45
2023/04/18 03:37:43;;;;;;;;;;;19.70;35.30;;;;;;8395762;28;19947;-44
2023/04/18 03:41:44;;;;;;;;;;;19.70;35.40;;;;;;8394889;28;19916;-44
2023/04/18 03:45:46;;;;;;;;;;;19.60;35.30;;;;;;8395117;28;19924;-44
2023/04/18 03:49:46;;;;;;;;;;;19.60;35.30;;;;;;8395132;28;19912;-44
2023/04/18 03:53:46;;;;;;;;;;;19.60;35.30;;;;;;8394639;28;19917;-44
2023/04/18 03:57:47;;;;;;;;;;;19.70;35.30;;;;;;8398903;28;20420;-44
2023/04/18 04:01:47;;;;;;;;;;;19.60;35.30;;;;;;8401368;28;19924;-44
2023/04/18 04:05:48;;;;;;;;;;;19.60;35.20;;;;;;8377963;28;19921;-44
2023/04/18 04:09:48;;;;;;;;;;;19.60;35.30;;;;;;8383285;28;19917;-45
2023/04/18 04:13:49;;;;;;;;;;;19.70;35.20;;;;;;8400958;28;19917;-44
2023/04/18 04:17:49;;;;;;;;;;;19.80;35.20;;;;;;8400763;28;20427;-45
2023/04/18 04:21:50;;;;;;;;;;;19.90;35.20;;;;;;8401105;28;19917;-44
2023/04/18 04:25:51;;;;;;;;;;;20.00;35.10;;;;;;8400978;28;20365;-44
2023/04/18 04:29:52;;;;;;;;;;;20.00;35.10;;;;;;8400206;28;19927;-44
2023/04/18 04:33:53;;;;;;;;;;;20.10;35.00;;;;;;8400438;28;20003;-44
2023/04/18 04:37:53;;;;;;;;;;;20.20;35.00;;;;;;8400503;28;19921;-44
2023/04/18 04:41:56;;;;;;;;;;;20.20;34.90;;;;;;8400117;28;19916;-45
2023/04/18 04:45:56;;;;;;;;;;;20.30;34.90;;;;;;8400079;28;19920;-44
2023/04/18 04:49:57;;;;;;;;;;;20.40;34.90;;;;;;8399975;28;20014;-44
2023/04/18 04:53:57;;;;;;;;;;;20.40;34.80;;;;;;8399535;28;19962;-44
2023/04/18 04:57:58;;;;;;;;;;;20.50;34.80;;;;;;8399975;28;19920;-44
2023/04/18 05:01:58;;;;;;;;;;;20.50;34.80;;;;;;8399384;28;19960;-44
2023/04/18 05:05:59;;;;;;;;;;;20.50;34.90;;;;;;8398926;28;19923;-44
2023/04/18 05:09:59;;;;;;;;;;;20.50;34.90;;;;;;8398742;28;19923;-45
2023/04/18 05:14:01;;;;;;;;;;;20.50;34.80;;;;;;8398547;28;21316;-44
2023/04/18 05:18:02;;;;;;;;;;;20.50;34.90;;;;;;8399055;28;19920;-44
2023/04/18 05:22:02;;;;;;;;;;;20.50;34.80;;;;;;8399392;28;19921;-44
2023/04/18 05:26:03;;;;;;;;;;;20.50;34.80;;;;;;8398983;28;20288;-45
2023/04/18 05:30:04;;;;;;;;;;;20.50;34.90;;;;;;8398326;28;20384;-45
2023/04/18 05:34:04;;;;;;;;;;;20.40;34.80;;;;;;8398921;28;19921;-45
2023/04/18 05:38:05;;;;;;;;;;;20.40;34.90;;;;;;8398726;28;19920;-44
2023/04/18 05:42:05;;;;;;;;;;;20.40;34.90;;;;;;8397963;28;20439;-44
2023/04/18 05:46:07;;;;;;;;;;;20.40;35.00;;;;;;8398155;28;19982;-43
2023/04/18 05:50:08;;;;;;;;;;;20.40;34.90;;;;;;8398142;28;20012;-44
2023/04/18 05:54:08;;;;;;;;;;;20.40;35.00;;;;;;8397401;28;19920;-43
2023/04/18 05:58:09;;;;;;;;;;;20.40;35.00;;;;;;8398142;28;20339;-43
2023/04/18 06:02:12;;;;;;;;;;;20.40;35.00;;;;;;8397614;28;19917;-43
2023/04/18 06:06:12;;;;;;;;;;;20.40;35.00;;;;;;8395714;28;19916;-43
2023/04/18 06:10:13;;;;;;;;;;;20.50;35.00;;;;;;8397352;28;19916;-45
2023/04/18 06:14:13;;;;;;;;;;;20.50;35.00;;;;;;8397130;28;19917;-44
2023/04/18 06:18:13;;;;;;;;;;;20.50;35.40;;;;;;8396282;28;20385;-44
2023/04/18 06:22:14;;;;;;;;;;;20.60;34.90;;;;;;8396287;28;19959;-44
2023/04/18 06:26:14;;;;;;;;;;;20.60;34.90;;;;;;8396947;28;20281;-44
2023/04/18 06:30:15;;;;;;;;;;;20.60;34.90;;;;;;8396631;28;20370;-45
2023/04/18 06:34:15;;;;;;;;;;;20.70;34.90;;;;;;8396982;28;19935;-46
2023/04/18 06:38:16;;;;;;;;;;;20.70;34.90;;;;;;8396721;28;20370;-46
2023/04/18 06:42:16;;;;;;;;;;;20.70;34.90;;;;;;8396051;28;19917;-45
2023/04/18 06:46:17;;;;;;;;;;;20.70;34.80;;;;;;8396185;28;19916;-45
2023/04/18 06:50:17;;;;;;;;;;;20.70;34.80;;;;;;8396129;28;19927;-44
2023/04/18 06:54:18;;;;;;;;;;;20.70;34.90;;;;;;8395706;28;20424;-43
2023/04/18 06:58:18;;;;;;;;;;;20.60;34.80;;;;;;8396369;28;19928;-44
2023/04/18 07:02:19;;;;;;;;;;;20.60;34.80;;;;;;8395734;28;19927;-43
2023/04/18 07:06:19;;;;;;;;;;;20.60;34.90;;;;;;8395288;28;19938;-44
2023/04/18 07:10:19;;;;;;;;;;;20.60;34.90;;;;;;8394714;28;20061;-44
2023/04/18 07:14:22;;;;;;;;;;;20.60;35.00;;;;;;8395648;28;19989;-44
2023/04/18 07:18:22;;;;;;;;;;;20.60;35.00;;;;;;8395060;28;19928;-44
2023/04/18 07:22:23;;;;;;;;;;;20.50;35.00;;;;;;8395551;28;20319;-44
2023/04/18 07:26:23;;;;;;;;;;;20.50;35.10;;;;;;8395318;28;19913;-45
2023/04/18 07:30:24;;;;;;;;;;;20.50;35.10;;;;;;8394667;28;19969;-44
2023/04/18 07:34:28;;;;;;;;;;;20.50;35.10;;;;;;8395068;28;19923;-44
2023/04/18 07:38:29;;;;;;;;;;;20.50;35.10;;;;;;8395391;28;19931;-44
2023/04/18 07:42:29;;;;;;;;;;;20.50;35.10;;;;;;8394662;28;20369;-45
2023/04/18 07:46:31;;;;;;;;;;;20.50;35.60;;;;;;8395030;28;20365;-45
2023/04/18 07:50:31;;;;;;;;;;;20.50;35.10;;;;;;8394956;28;19916;-44
2023/04/18 07:54:31;;;;;;;;;;;20.50;35.10;;;;;;8394849;28;20073;-45
2023/04/18 07:58:35;;;;;;;;;;;20.40;35.10;;;;;;8395191;28;19970;-45
2023/04/18 08:02:35;;;;;;;;;;;20.40;35.00;;;;;;8394917;28;19920;-44
2023/04/18 08:06:36;;;;;;;;;;;20.40;35.00;;;;;;8394514;28;19979;-44
2023/04/18 08:10:36;;;;;;;;;;;20.40;35.10;;;;;;8394739;28;19916;-43
2023/04/18 08:14:37;;;;;;;;;;;20.40;35.10;;;;;;8395011;28;19912;-43
2023/04/18 08:18:37;;;;;;;;;;;20.40;35.10;;;;;;8394257;28;19920;-43
2023/04/18 08:22:38;;;;;;;;;;;20.30;35.00;;;;;;8394422;28;19916;-43
2023/04/18 08:26:38;;;;;;;;;;;20.30;35.00;;;;;;8394490;28;19987;-44
2023/04/18 08:30:39;;;;;;;;;;;20.30;35.00;;;;;;8394016;28;19948;-44
2023/04/18 08:34:39;;;;;;;;;;;20.30;35.00;;;;;;8394456;28;19919;-44
2023/04/18 08:38:40;;;;;;;;;;;20.30;35.00;;;;;;8394442;28;19928;-44
2023/04/18 08:42:42;;;;;;;;;;;20.30;35.00;;;;;;8393675;28;19916;-43
2023/04/18 08:46:42;;;;;;;;;;;20.30;35.00;;;;;;8399924;28;20421;-45
2023/04/18 08:50:43;;;;;;;;;;;20.30;35.00;;;;;;8399435;28;19920;-42
2023/04/18 08:54:45;;;;;;;;;;;20.30;35.00;;;;;;8399724;28;19959;-44
2023/04/18 08:58:45;;;;;;;;;;;20.30;35.00;;;;;;8399667;28;20046;-43
2023/04/18 09:02:46;;;;;;;;;;;20.40;35.10;;;;;;8399164;28;19924;-42
2023/04/18 09:06:52;;;;;;;;;;;20.30;35.00;;;;;;8399500;28;19916;-44
2023/04/18 09:10:53;;;;;;;;;;;20.40;35.00;;;;;;8399183;28;19917;-43
2023/04/18 09:15:08;;;;;;;;;;;20.40;35.00;;;;;;8398763;28;19941;-43
2023/04/18 09:19:10;;;;;;;;;;;20.40;35.00;;;;;;8399521;28;20003;-43
2023/04/18 09:23:13;;;;;;;;;;;20.40;35.00;;;;;;8399126;28;20274;-45
2023/04/18 09:27:14;;;;;;;;;;;20.40;35.00;;;;;;8398526;28;19921;-45
2023/04/18 09:31:15;;;;;;;;;;;20.40;35.00;;;;;;8398936;28;19920;-44
2023/04/18 09:35:23;;;;;;;;;;;20.40;35.00;;;;;;8398718;28;19920;-44
2023/04/18 09:39:27;;;;;;;;;;;20.40;35.00;;;;;;8398277;28;20431;-44
2023/04/18 09:43:27;;;;;;;;;;;20.40;35.00;;;;;;8398377;28;19916;-44
2023/04/18 09:47:28;;;;;;;;;;;20.30;35.00;;;;;;8398155;28;19917;-45
2023/04/18 09:51:30;;;;;;;;;;;20.30;35.00;;;;;;8397605;28;20373;-44
2023/04/18 09:55:31;;;;;;;;;;;20.30;35.00;;;;;;8397620;28;20373;-44
2023/04/18 09:59:42;;;;;;;;;;;20.30;35.00;;;;;;8397967;28;19912;-42
2023/04/18 10:03:45;;;;;;;;;;;20.40;35.00;;;;;;8339190;28;19927;-45
2023/04/18 10:07:47;;;;;;;;;;;20.40;35.00;;;;;;8351253;28;19917;-44
2023/04/18 10:11:48;;;;;;;;;;;20.40;35.00;;;;;;8363782;28;19943;-44
2023/04/18 10:15:51;;;;;;;;;;;20.40;35.00;;;;;;8364248;28;19929;-45
2023/04/18 10:20:06;;;;;;;;;;;20.40;35.00;;;;;;8364327;28;20328;-44
2023/04/18 10:24:27;;;;;;;;;;;20.40;35.00;;;;;;8362416;28;20050;-45
2023/04/18 10:28:47;;;;;;;;;;;20.40;35.00;;;;;;8363790;28;19956;-44
2023/04/18 10:32:47;;;;;;;;;;;20.40;35.00;;;;;;8363094;28;19960;-44
2023/04/18 10:37:03;;;;;;;;;;;20.40;35.00;;;;;;8363478;28;20305;-43
2023/04/18 10:41:23;;;;;;;;;;;20.40;35.00;;;;;;8363341;28;19916;-44
2023/04/18 10:45:25;;;;;;;;;;;20.40;35.00;;;;;;8363014;28;20047;-44
2023/04/18 10:49:26;;;;;;;;;;;20.40;35.00;;;;;;8363192;28;19917;-44
2023/04/18 10:53:26;;;;;;;;;;;20.40;35.50;;;;;;8363084;28;19913;-44
2023/04/18 10:57:56;;;;;;;;;;;20.50;35.00;;;;;;8362533;28;19925;-43
2023/04/18 11:02:15;;;;;;;;;;;20.50;35.00;;;;;;8353847;28;19912;-44
2023/04/18 11:06:16;;;;;;;;;;;20.50;35.00;;;;;;8361676;28;20446;-45
2023/04/18 11:10:18;;;;;;;;;;;20.50;35.00;;;;;;8362995;28;19913;-43
2023/04/18 11:14:19;;;;;;;;;;;20.50;35.00;;;;;;8362733;28;19920;-44
2023/04/18 11:18:19;;;;;;;;;;;20.50;35.00;;;;;;8362072;28;19986;-43
2023/04/18 11:22:20;;;;;;;;;;;20.50;35.00;;;;;;8362391;28;19917;-43
2023/04/18 11:26:27;;;;;;;;;;;20.50;34.90;;;;;;8362311;28;19917;-44
2023/04/18 11:30:35;;;;;;;;;;;20.50;34.90;;;;;;8362069;28;19959;-45
2023/04/18 11:34:35;;;;;;;;;;;20.50;34.90;;;;;;8362214;28;19917;-45
2023/04/18 11:38:38;;;;;;;;;;;20.50;34.90;;;;;;8362159;28;20385;-44
2023/04/18 11:42:39;;;;;;;;;;;20.50;34.90;;;;;;8361524;28;19917;-44
2023/04/18 11:46:40;;;;;;;;;;;20.50;35.00;;;;;;8362178;28;20286;-44
2023/04/18 11:50:41;;;;;;;;;;;20.50;34.90;;;;;;8361866;28;19951;-43
2023/04/18 11:54:42;;;;;;;;;;;20.50;35.00;;;;;;8361840;28;19921;-44
2023/04/18 11:58:43;;;;;;;;;;;20.60;35.00;;;;;;8361800;28;20314;-45
2023/04/18 12:02:48;;;;;;;;;;;20.50;35.00;;;;;;8361417;28;19921;-43
2023/04/18 12:06:49;;;;;;;;;;;20.50;34.90;;;;;;8361597;28;20362;-44
2023/04/18 12:10:50;;;;;;;;;;;20.50;34.90;;;;;;8360622;28;20423;-43
2023/04/18 12:15:17;;;;;;;;;;;20.50;34.90;;;;;;8361114;28;19917;-44
2023/04/18 12:19:19;;;;;;;;;;;20.60;34.90;;;;;;8363380;28;19917;-44
2023/04/18 12:23:34;;;;;;;;;;;20.50;34.90;;;;;;8367810;28;19917;-44
2023/04/18 12:27:51;;;;;;;;;;;20.60;35.00;;;;;;8367023;28;20347;-45
2023/04/18 12:31:51;;;;;;;;;;;20.60;34.90;;;;;;8367527;28;19923;-45
2023/04/18 12:35:52;;;;;;;;;;;20.60;34.90;;;;;;8367315;28;19925;-44
2023/04/18 12:39:53;;;;;;;;;;;20.60;34.90;;;;;;8367122;28;19917;-44
2023/04/18 12:43:53;;;;;;;;;;;20.60;34.90;;;;;;8367148;28;19917;-45
2023/04/18 12:47:53;;;;;;;;;;;20.60;34.90;;;;;;8366276;28;19924;-46
2023/04/18 12:51:54;;;;;;;;;;;20.60;34.90;;;;;;8366978;28;19917;-44
2023/04/18 12:55:54;;;;;;;;;;;20.60;34.90;;;;;;8364862;28;19925;-44
2023/04/18 12:59:55;;;;;;;;;;;20.60;34.80;;;;;;8365293;28;19917;-44
2023/04/18 13:03:55;;;;;;;;;;;20.70;34.90;;;;;;8366764;28;20027;-46
2023/04/18 13:07:56;;;;;;;;;;;20.60;34.90;;;;;;8364611;28;19924;-45
2023/04/18 13:11:57;;;;;;;;;;;20.60;34.80;;;;;;8365964;28;19913;-44
2023/04/18 13:15:57;;;;;;;;;;;20.70;34.90;;;;;;8365922;28;20378;-45
2023/04/18 13:19:58;;;;;;;;;;;20.70;34.90;;;;;;8365974;28;19995;-44
2023/04/18 13:23:59;;;;;;;;;;;20.70;34.90;;;;;;8364683;28;19912;-44
2023/04/18 13:28:00;;;;;;;;;;;20.70;34.90;;;;;;8365563;28;20335;-44
2023/04/18 13:32:00;;;;;;;;;;;20.70;34.90;;;;;;8364791;28;19916;-45
2023/04/18 13:36:01;;;;;;;;;;;20.70;34.90;;;;;;8365115;28;19925;-43
2023/04/18 13:40:04;;;;;;;;;;;20.70;34.90;;;;;;8364961;28;19920;-44
2023/04/18 13:44:04;;;;;;;;;;;20.70;34.90;;;;;;8365192;28;19917;-43
2023/04/18 13:48:05;;;;;;;;;;;20.70;34.80;;;;;;8364303;28;19924;-43
2023/04/18 13:52:06;;;;;;;;;;;20.70;34.80;;;;;;8364795;28;20365;-43
2023/04/18 13:56:06;;;;;;;;;;;20.70;34.80;;;;;;8364888;28;19960;-42
2023/04/18 14:00:08;;;;;;;;;;;20.70;34.80;;;;;;8363943;28;20012;-44
2023/04/18 14:04:08;;;;;;;;;;;20.70;34.80;;;;;;8364631;28;19927;-44
2023/04/18 14:08:09;;;;;;;;;;;20.70;34.80;;;;;;8364493;28;19913;-44
2023/04/18 14:12:09;;;;;;;;;;;20.70;34.80;;;;;;8363726;28;19916;-43
2023/04/18 14:16:10;;;;;;;;;;;20.70;34.80;;;;;;8364488;28;19932;-45
2023/04/18 14:20:10;;;;;;;;;;;20.70;34.80;;;;;;8363954;28;19917;-44
2023/04/18 14:24:11;;;;;;;;;;;20.70;34.80;;;;;;8363345;28;20003;-44
2023/04/18 14:28:11;;;;;;;;;;;20.70;34.80;;;;;;8364240;28;20362;-44
2023/04/18 14:32:12;;;;;;;;;;;20.70;34.80;;;;;;8363544;28;19996;-43
2023/04/18 14:36:14;;;;;;;;;;;20.80;34.80;;;;;;8363096;28;19924;-44
2023/04/18 14:40:14;;;;;;;;;;;20.80;34.80;;;;;;8363304;28;20386;-44
2023/04/18 14:44:16;;;;;;;;;;;20.80;34.80;;;;;;8363087;28;19920;-44
2023/04/18 14:48:16;;;;;;;;;;;20.80;34.80;;;;;;8362372;28;19921;-45
2023/04/18 14:52:17;;;;;;;;;;;20.80;34.80;;;;;;8363120;28;20137;-44
2023/04/18 14:56:19;;;;;;;;;;;20.80;34.80;;;;;;8362815;28;19948;-44
2023/04/18 15:00:20;;;;;;;;;;;20.80;34.80;;;;;;8362416;28;19916;-45
2023/04/18 15:04:21;;;;;;;;;;;20.80;34.80;;;;;;8362820;28;20011;-45
2023/04/18 15:08:21;;;;;;;;;;;20.80;34.90;;;;;;8362935;28;19913;-44
2023/04/18 15:12:22;;;;;;;;;;;20.80;35.00;;;;;;8362260;28;19943;-44
2023/04/18 15:16:22;;;;;;;;;;;20.80;35.00;;;;;;8362271;28;19975;-46
2023/04/18 15:20:22;;;;;;;;;;;20.90;34.90;;;;;;8362314;28;20043;-44
2023/04/18 15:24:23;;;;;;;;;;;21.00;34.80;;;;;;8361843;28;19917;-44
2023/04/18 15:28:24;;;;;;;;;;;21.00;34.80;;;;;;8362049;28;20307;-45
2023/04/18 15:32:24;;;;;;;;;;;21.10;34.70;;;;;;8362123;28;19924;-44
2023/04/18 15:36:26;;;;;;;;;;;21.20;34.70;;;;;;8361397;28;20329;-44
2023/04/18 15:40:26;;;;;;;;;;;21.20;34.70;;;;;;8362033;28;20408;-44
2023/04/18 15:44:29;;;;;;;;;;;21.30;34.70;;;;;;8361617;28;19917;-44
2023/04/18 15:48:33;;;;;;;;;;;21.30;34.60;;;;;;8361217;28;20358;-44
2023/04/18 15:52:33;;;;;;;;;;;21.30;34.60;;;;;;8363648;28;19921;-45
2023/04/18 15:56:35;;;;;;;;;;;21.40;34.60;;;;;;8368446;28;19925;-43
2023/04/18 16:00:36;;;;;;;;;;;21.40;34.60;;;;;;8367915;28;19917;-43
2023/04/18 16:04:36;;;;;;;;;;;21.40;34.60;;;;;;8351220;28;19927;-43
2023/04/18 16:08:36;;;;;;;;;;;21.40;34.50;;;;;;8368259;28;19917;-44
2023/04/18 16:12:38;;;;;;;;;;;21.40;34.50;;;;;;8367754;28;19955;-43
2023/04/18 16:16:38;;;;;;;;;;;21.40;34.60;;;;;;8368000;28;20389;-43
2023/04/18 16:20:39;;;;;;;;;;;21.40;34.60;;;;;;8367720;28;19917;-44
2023/04/18 16:24:40;;;;;;;;;;;21.30;34.60;;;;;;8367110;28;20460;-44
2023/04/18 16:28:40;;;;;;;;;;;21.30;34.60;;;;;;8367634;28;19924;-44
2023/04/18 16:32:41;;;;;;;;;;;21.30;34.70;;;;;;8367191;28;19913;-42
2023/04/18 16:36:41;;;;;;;;;;;21.30;34.70;;;;;;8366929;28;19971;-43
2023/04/18 16:40:42;;;;;;;;;;;21.30;34.70;;;;;;8367301;28;19925;-43
2023/04/18 16:44:44;;;;;;;;;;;21.30;34.80;;;;;;8366586;28;20293;-45
2023/04/18 16:48:44;;;;;;;;;;;21.30;34.80;;;;;;8367367;28;20022;-44
2023/04/18 16:52:45;;;;;;;;;;;21.30;34.80;;;;;;8367258;28;19913;-44
2023/04/18 16:56:45;;;;;;;;;;;21.30;34.80;;;;;;8366002;28;19925;-44
2023/04/18 17:00:46;;;;;;;;;;;21.30;34.80;;;;;;8366639;28;19951;-46
2023/04/18 17:04:47;;;;;;;;;;;21.30;34.70;;;;;;8365076;28;19921;-44
2023/04/18 17:08:48;;;;;;;;;;;21.30;34.70;;;;;;8365928;28;19917;-44
2023/04/18 17:12:48;;;;;;;;;;;21.30;34.70;;;;;;8366585;28;19913;-44
2023/04/18 17:16:49;;;;;;;;;;;21.30;34.70;;;;;;8365824;28;19924;-44
2023/04/18 17:20:49;;;;;;;;;;;21.40;34.70;;;;;;8365479;28;19974;-43
2023/04/18 17:24:50;;;;;;;;;;;21.40;34.70;;;;;;8365827;28;19916;-45
2023/04/18 17:28:51;;;;;;;;;;;21.40;34.70;;;;;;8365699;28;19924;-43
2023/04/18 17:32:51;;;;;;;;;;;21.40;34.70;;;;;;8365734;28;19939;-44
2023/04/18 17:36:52;;;;;;;;;;;21.40;34.60;;;;;;8365224;28;19948;-42
2023/04/18 17:40:56;;;;;;;;;;;21.40;34.70;;;;;;8365043;28;19924;-43
2023/04/18 17:44:57;;;;;;;;;;;21.40;34.70;;;;;;8364337;28;20423;-43
2023/04/18 17:48:57;;;;;;;;;;;21.40;34.60;;;;;;8364524;28;19921;-44
2023/04/18 17:52:58;;;;;;;;;;;21.40;35.20;;;;;;8364631;28;19917;-43
2023/04/18 17:56:58;;;;;;;;;;;21.40;34.60;;;;;;8364064;28;19924;-42
2023/04/18 18:00:59;;;;;;;;;;;21.40;34.70;;;;;;8364357;28;20358;-43
2023/04/18 18:04:59;;;;;;;;;;;21.40;34.70;;;;;;8364527;28;19920;-43
2023/04/18 18:09:00;;;;;;;;;;;21.40;34.70;;;;;;8363916;28;19970;-43
2023/04/18 18:13:00;;;;;;;;;;;21.50;34.70;;;;;;8364130;28;19913;-45
2023/04/18 18:17:01;;;;;;;;;;;21.50;34.70;;;;;;8363603;28;20364;-44
2023/04/18 18:21:01;;;;;;;;;;;21.40;34.70;;;;;;8363390;28;19916;-44
2023/04/18 18:25:04;;;;;;;;;;;21.40;34.70;;;;;;8363490;28;19991;-44
2023/04/18 18:29:08;;;;;;;;;;;21.40;34.80;;;;;;8363630;28;20369;-44
2023/04/18 18:33:08;;;;;;;;;;;21.40;34.80;;;;;;8363121;28;19920;-45
2023/04/18 18:37:09;;;;;;;;;;;21.40;34.80;;;;;;8363361;28;19924;-44
2023/04/18 18:41:09;;;;;;;;;;;21.30;34.80;;;;;;8362105;28;20281;-44
2023/04/18 18:45:09;;;;;;;;;;;21.30;34.80;;;;;;8362832;28;20007;-44
2023/04/18 18:49:10;;;;;;;;;;;21.30;34.90;;;;;;8363059;28;19920;-44
2023/04/18 18:53:11;;;;;;;;;;;21.30;34.90;;;;;;8363396;28;19948;-44
2023/04/18 18:57:11;;;;;;;;;;;21.30;34.90;;;;;;8362391;28;19924;-44
2023/04/18 19:01:11;;;;;;;;;;;21.30;34.90;;;;;;8363023;28;20012;-44
2023/04/18 19:05:12;;;;;;;;;;;21.30;34.90;;;;;;8361710;28;19925;-44
2023/04/18 19:09:12;;;;;;;;;;;21.30;34.80;;;;;;8362303;28;20341;-43
2023/04/18 19:13:13;;;;;;;;;;;21.30;34.90;;;;;;8362803;28;19917;-43
2023/04/18 19:17:16;;;;;;;;;;;21.30;34.80;;;;;;8362258;28;19964;-43
2023/04/18 19:21:16;;;;;;;;;;;21.30;34.80;;;;;;8361783;28;19917;-43
2023/04/18 19:25:17;;;;;;;;;;;21.30;34.80;;;;;;8362400;28;20059;-43
2023/04/18 19:29:17;;;;;;;;;;;21.30;34.90;;;;;;8361357;28;19940;-43
2023/04/18 19:33:18;;;;;;;;;;;21.30;34.80;;;;;;8362313;28;20281;-43
2023/04/18 19:37:19;;;;;;;;;;;21.30;34.80;;;;;;8362377;28;19925;-43
2023/04/18 19:41:20;;;;;;;;;;;21.40;34.80;;;;;;8362011;28;19924;-43
2023/04/18 19:45:20;;;;;;;;;;;21.30;34.80;;;;;;8361796;28;20374;-45
2023/04/18 19:49:21;;;;;;;;;;;21.30;34.80;;;;;;8361886;28;19922;-44
2023/04/18 19:53:22;;;;;;;;;;;21.40;34.90;;;;;;8361997;28;19919;-45
2023/04/18 19:57:24;;;;;;;;;;;21.40;34.80;;;;;;8361204;28;19935;-44
2023/04/18 20:01:25;;;;;;;;;;;21.40;34.80;;;;;;8361941;28;20378;-44
2023/04/18 20:05:25;;;;;;;;;;;21.40;34.80;;;;;;8361629;28;19967;-43
2023/04/18 20:09:26;;;;;;;;;;;21.40;34.80;;;;;;8361155;28;19913;-43
2023/04/18 20:13:26;;;;;;;;;;;21.40;34.80;;;;;;8362040;28;20152;-44
2023/04/18 20:17:29;;;;;;;;;;;21.40;34.80;;;;;;8361244;28;19924;-42
2023/04/18 20:21:29;;;;;;;;;;;21.30;34.80;;;;;;8360947;28;19932;-43
2023/04/18 20:25:30;;;;;;;;;;;21.30;34.80;;;;;;8361659;28;20336;-43
2023/04/18 20:29:31;;;;;;;;;;;21.30;34.90;;;;;;8361731;28;20380;-42
2023/04/18 20:33:31;;;;;;;;;;;21.30;34.90;;;;;;8360899;28;19924;-43
2023/04/18 20:37:35;;;;;;;;;;;21.30;34.90;;;;;;8361236;28;19928;-44
2023/04/18 20:41:35;;;;;;;;;;;21.30;34.90;;;;;;8367165;28;20521;-44
2023/04/18 20:45:36;;;;;;;;;;;21.30;34.90;;;;;;8366612;28;19917;-44
2023/04/18 20:49:37;;;;;;;;;;;21.30;34.80;;;;;;8367075;28;19913;-44
2023/04/18 20:53:37;;;;;;;;;;;21.30;34.80;;;;;;8366905;28;20006;-44
2023/04/18 20:57:38;;;;;;;;;;;21.30;34.80;;;;;;8366099;28;19931;-44
2023/04/18 21:01:38;;;;;;;;;;;21.30;34.80;;;;;;8366646;28;19924;-44
2023/04/18 21:05:39;;;;;;;;;;;21.30;34.80;;;;;;8366584;28;20346;-44
2023/04/18 21:09:39;;;;;;;;;;;21.30;34.80;;;;;;8365969;28;19920;-43
2023/04/18 21:13:40;;;;;;;;;;;21.20;34.80;;;;;;8366599;28;19924;-43
2023/04/18 21:17:40;;;;;;;;;;;21.30;34.80;;;;;;8365938;28;19925;-44
2023/04/18 21:21:40;;;;;;;;;;;21.30;34.80;;;;;;8365633;28;19917;-43
2023/04/18 21:25:41;;;;;;;;;;;21.20;34.70;;;;;;8365932;28;19924;-43
2023/04/18 21:29:41;;;;;;;;;;;21.20;34.70;;;;;;8365604;28;19956;-41
2023/04/18 21:33:42;;;;;;;;;;;21.20;34.70;;;;;;8365639;28;20370;-43
2023/04/18 21:37:42;;;;;;;;;;;21.20;34.70;;;;;;8365459;28;19928;-43
2023/04/18 21:41:43;;;;;;;;;;;21.20;34.70;;;;;;8364686;28;19974;-43
2023/04/18 21:45:44;;;;;;;;;;;21.20;34.70;;;;;;8365191;28;20397;-42
2023/04/18 21:49:45;;;;;;;;;;;21.20;34.70;;;;;;8364508;28;19963;-43
2023/04/18 21:53:45;;;;;;;;;;;21.10;34.70;;;;;;8364606;28;20374;-44
2023/04/18 21:57:46;;;;;;;;;;;21.10;34.70;;;;;;8365024;28;20293;-43
2023/04/18 22:01:46;;;;;;;;;;;21.10;34.80;;;;;;8364081;28;20007;-43
2023/04/18 22:05:46;;;;;;;;;;;21.00;34.70;;;;;;8363263;28;19940;-43
2023/04/18 22:09:47;;;;;;;;;;;21.00;34.70;;;;;;8364966;28;20327;-42
2023/04/18 22:13:48;;;;;;;;;;;21.00;34.70;;;;;;8364438;28;20279;-43
2023/04/18 22:17:49;;;;;;;;;;;21.00;34.80;;;;;;8363924;28;19924;-42
2023/04/18 22:21:49;;;;;;;;;;;21.00;34.80;;;;;;8364197;28;19969;-44
2023/04/18 22:25:50;;;;;;;;;;;20.90;34.80;;;;;;8364126;28;19917;-44
2023/04/18 22:29:50;;;;;;;;;;;20.90;34.70;;;;;;8363777;28;19913;-43
2023/04/18 22:33:51;;;;;;;;;;;20.90;34.80;;;;;;8363822;28;19980;-43
2023/04/18 22:37:51;;;;;;;;;;;20.90;34.80;;;;;;8363515;28;19932;-43
2023/04/18 22:41:52;;;;;;;;;;;20.90;34.90;;;;;;8363249;28;20286;-44
2023/04/18 22:45:52;;;;;;;;;;;20.90;34.90;;;;;;8363350;28;19974;-43
2023/04/18 22:49:53;;;;;;;;;;;20.80;34.90;;;;;;8363477;28;20340;-43
2023/04/18 22:53:54;;;;;;;;;;;20.80;34.90;;;;;;8362846;28;19921;-42
2023/04/18 22:57:54;;;;;;;;;;;20.80;34.90;;;;;;8362964;28;19929;-42
2023/04/18 23:01:55;;;;;;;;;;;20.80;34.90;;;;;;8361996;28;20333;-43
2023/04/18 23:05:55;;;;;;;;;;;20.80;34.90;;;;;;8362488;28;20301;-43
2023/04/18 23:09:56;;;;;;;;;;;20.80;35.00;;;;;;8363241;28;19913;-44
2023/04/18 23:13:56;;;;;;;;;;;20.80;35.00;;;;;;8362851;28;19963;-44
2023/04/18 23:17:57;;;;;;;;;;;20.70;34.90;;;;;;8362027;28;19979;-43
2023/04/18 23:21:58;;;;;;;;;;;20.70;34.90;;;;;;8362456;28;20000;-43